Aviation Digital Data Service (ADDS)

Output produced by METARs form (2345 UTC 02 September 2014)
found at http://aviationweather.gov/adds/metars/
 
KSAN 022325Z 0300/0406 27008KT P6SM SCT020 
     FM030200 VRB05KT P6SM OVC018 
     FM031630 VRB04KT P6SM SCT020 
     FM031900 27009KT P6SM FEW020 
     FM040400 VRB05KT P6SM BKN019